This is the latest recevied weather packets stored in our database for station/object KC4KQE. If no packets are shown the sender has not sent any weather packets the latest 10 day(s).
| Time | Temp. | Humidity | Pressure | Rain* | Wind** | Luminosity | Snow |
|---|---|---|---|---|---|---|---|
| 1778099358 | 26.67° C | 21% | 1015 hPa | 0 mm | - | 928 W/m² | - |
| 1778099056 | 25.56° C | 23% | 1015.1 hPa | 0 mm | - | 932 W/m² | - |
| 1778098756 | 25° C | 21% | 1015.1 hPa | 0 mm | - | 939 W/m² | - |
| 1778098456 | 26.11° C | 21% | 1015.2 hPa | 0 mm | - | 942 W/m² | - |
| 1778098157 | 26.67° C | 21% | 1015.2 hPa | 0 mm | - | 942 W/m² | - |
| 1778097856 | 25° C | 24% | 1015.2 hPa | 0 mm | - | 946 W/m² | - |
| 1778097557 | 25° C | 23% | 1015.3 hPa | 0 mm | - | 947 W/m² | - |
| 1778097258 | 25° C | 23% | 1015.4 hPa | 0 mm | - | 949 W/m² | - |
| 1778096956 | 26.11° C | 22% | 1015.3 hPa | 0 mm | - | 951 W/m² | - |
| 1778096657 | 25° C | 23% | 1015.3 hPa | 0 mm | - | 949 W/m² | - |
| 1778096357 | 25° C | 23% | 1015.4 hPa | 0 mm | - | 951 W/m² | - |
| 1778096057 | 24.44° C | 24% | 1015.4 hPa | 0 mm | - | 954 W/m² | - |
| 1778095756 | 25° C | 25% | 1015.4 hPa | 0 mm | - | 951 W/m² | - |
| 1778095456 | 24.44° C | 24% | 1015.5 hPa | 0 mm | - | 951 W/m² | - |
| 1778095156 | 24.44° C | 24% | 1015.6 hPa | 0 mm | - | 953 W/m² | - |
| 1778094857 | 25° C | 24% | 1015.7 hPa | 0 mm | - | 949 W/m² | - |
| 1778094556 | 25.56° C | 24% | 1015.7 hPa | 0 mm | - | 944 W/m² | - |
| 1778094258 | 24.44° C | 26% | 1015.7 hPa | 0 mm | - | 940 W/m² | - |
| 1778093956 | 23.89° C | 26% | 1015.8 hPa | 0 mm | - | 940 W/m² | - |
| 1778093656 | 24.44° C | 25% | 1015.9 hPa | 0 mm | - | 939 W/m² | - |
| 1778093356 | 24.44° C | 26% | 1015.9 hPa | 0 mm | - | 933 W/m² | - |
| 1778093057 | 23.89° C | 26% | 1016 hPa | 0 mm | - | 932 W/m² | - |
| 1778092757 | 23.89° C | 27% | 1016.1 hPa | 0 mm | - | 926 W/m² | - |
| 1778092456 | 24.44° C | 26% | 1016.2 hPa | 0 mm | - | 919 W/m² | - |
| 1778092156 | 23.33° C | 27% | 1016.2 hPa | 0 mm | - | 918 W/m² | - |
* Rain latest hour (hover to see other rain measurements)
** Current wind speed in m/s (hover to see current wind gust speed)